x

Half Moon Bay - 24nm Ssw Of San Francisco, Ca (46012) Wave Buoy

11:50am - Mon 20th Aug 2018 All times are PDT. -7 hours from GMT.

  • Sig Wave height 5.6ft
  • Swell Direction
  • Peak Period 9s
  • Average Period 6s
  • Wind
    7mph, 9mph gusts
  • Sea Temp 59°f
  • Air Temp 57°f
  • Sea Pressure 1014.7mb
  • Half Moon Bay - 24nm Ssw Of San Francisco, Ca
  • Half Moon Bay - 24nm Ssw Of San Francisco, Ca

More Historic Weather Station data

Upgrade to MSW Pro to gain access to the past 30 days of data for over 8000 Wavebouys and Weather Stations around the globe.

Join

Comparision Forecast

View Surf forecast
   
Mon 08/20 11:50am 5.5ft 9s 6s 7 9 mph 1014.7mb 59f 57f
10:50am 7ft 9s 7s 9 11 mph 1014.4mb 59f 57f
9:50am 7.5ft 9s 7s 13 16 mph 1014.3mb 58f 57f
8:50am 8ft 9s 7s 13 18 mph 1014mb 58f 57f
7:50am 7ft 9s 7s 16 18 mph 1013.5mb 58f 56f
6:50am 7.5ft 9s 7s 16 20 mph 1013.1mb 58f 56f
5:50am 7.5ft 9s 7s 16 20 mph 1013mb 59f 57f
4:50am 7ft 9s 7s 13 18 mph 1012.9mb 59f 57f
3:50am 7ft 10s 7s 16 18 mph 1012.7mb 59f 57f
2:50am 6ft 9s 7s 16 22 mph 1012.4mb 59f 57f
1:50am 6.5ft 9s 7s 16 18 mph 1012.7mb 59f 59f
12:50am 6.5ft 8s 7s 13 20 mph 1012.8mb 59f 59f
Sun 08/19 11:50pm 6ft 9s 7s 13 16 mph 1012.8mb 58f 60f
10:50pm 5.5ft 9s 7s 11 13 mph 1013.1mb 59f 60f
9:50pm 6ft 9s 7s 11 13 mph 1013.3mb 59f 59f
8:50pm 6ft 9s 7s 13 16 mph 1013mb 59f 59f
7:50pm 6ft 9s 7s 9 11 mph 1013.3mb 59f 59f
6:50pm 5.5ft 9s 6s 13 16 mph 1013.3mb 59f 57f
5:50pm 5ft 9s 7s 13 16 mph 1013.6mb 59f 57f
4:50pm 5.5ft 9s 7s 13 16 mph 1013.9mb 59f 58f
3:50pm 5ft 8s 7s 13 16 mph 1014.5mb 59f 58f
2:50pm 5ft 15s 7s 11 13 mph 1015mb 59f 58f
12:50pm 6ft 14s 7s 11 13 mph 1016.2mb 59f 57f
11:50am 6ft 9s 7s 11 13 mph 1016.4mb 59f 56f
10:50am 5.5ft 9s 7s 11 13 mph 1016.5mb 59f 56f
9:50am 6ft 9s 7s 11 16 mph 1016.4mb 59f 56f
8:50am 6ft 9s 7s 11 16 mph 1016.2mb 59f 56f
7:50am 6ft 15s 7s 11 13 mph 1016mb 60f 56f
6:50am 5ft 15s 7s 11 16 mph 1015.8mb 60f 56f
5:50am 5ft 10s 7s 11 13 mph 1015.7mb 60f 57f
3:50am 5ft 15s 8s 13 18 mph 1015.4mb 60f 58f
2:50am 5ft 15s 8s 11 13 mph 1015.8mb 60f 58f
1:50am 5ft 14s 7s 11 16 mph 1016.2mb 60f 57f
12:50am 5ft 15s 8s 9 11 mph 1016.9mb 60f 56f
Sat 08/18 11:50pm 5ft 15s  -  9 13 mph 1016.9mb 60f 55f
10:50pm 5ft 16s 8s 9 11 mph 1016.9mb 60f 56f
9:50pm 5ft 16s 8s 9 13 mph 1016.9mb 60f 58f
8:50pm 5ft 9s 8s 9 13 mph 1016.7mb 60f 58f
7:50pm 5ft 16s 9s 7 11 mph 1016.5mb 60f 57f
6:50pm 4.5ft 9s 8s 9 11 mph 1016.6mb 60f 57f
4:50pm 5ft 15s 9s 9 11 mph 1017.1mb 61f 57f
3:50pm 5ft 15s 8s 7 11 mph 1017.6mb 60f 59f
2:50pm 4.5ft 16s 8s 4 7 mph 1018.1mb 60f 58f
1:50pm 5.5ft 16s 8s 7 9 mph 1018.6mb 60f 58f
12:50pm 5.5ft 9s 8s 7 9 mph 1018.8mb 60f 59f
11:50am 5ft 16s 8s 7 9 mph 1019.1mb 60f 58f
10:50am 6ft 9s 8s 2 4 mph 1019.1mb 60f 57f
9:50am 5.5ft 16s 8s 7 9 mph 1018.8mb 60f 56f
8:50am 6ft 16s 9s 4 7 mph 1018.4mb 60f 56f
7:50am 5.5ft 16s 9s 4 7 mph 1018.1mb 60f 56f
6:50am 6ft 16s 9s 2 4 mph 1017.5mb 60f 56f
5:50am 6ft 16s 9s 2 4 mph 1017.5mb 60f 56f
4:50am 6ft 16s 10s 4 7 mph 1017.4mb 60f 56f
3:50am 6ft 16s 10s 4 7 mph 1017.5mb 60f 56f
2:50am 5.5ft 16s 9s 7 11 mph 1017.7mb 60f 56f
1:50am 5.5ft 16s 9s 7 9 mph 1017.7mb 60f 56f
12:50am 6ft 16s 10s 4 9 mph 1018mb 60f 56f
Fri 08/17 11:50pm 6ft 16s 9s 4 7 mph 1018.2mb 60f 56f
10:50pm 6ft 16s 8s 7 11 mph 1018.3mb 60f 56f
8:50pm 6.5ft 16s 9s 7 11 mph 1017.6mb 61f 57f
7:50pm 6ft 17s 8s 7 11 mph 1017.5mb 61f 57f
6:50pm 6ft 16s 9s 9 11 mph 1017.3mb 61f 58f
5:50pm 5ft 16s 9s 9 13 mph 1017.6mb 61f 59f
4:50pm 5ft 17s 9s 9 11 mph 1018mb 61f 59f
3:50pm 5ft 17s 9s 9 11 mph 1018.3mb 61f 59f
2:50pm 5ft 17s 9s 7 9 mph 1018.8mb 61f 59f
1:50pm 5.5ft 17s 9s 7 7 mph 1019mb 61f 58f
12:50pm 5ft 17s 7s 4 7 mph 1019.1mb 61f 58f
11:50am 5ft 17s 8s 4 7 mph 1019.2mb 60f 58f
10:50am 5.5ft 17s 8s 7 9 mph 1019.2mb 60f 58f
9:50am 4.5ft 17s 7s 4 7 mph 1019.3mb 60f 58f
8:50am 5ft 17s 9s 4 7 mph 1019.2mb 59f 58f
7:50am 5ft 17s 8s 7 9 mph 1018.8mb 59f 58f
6:50am 5ft 17s 8s 7 11 mph 1018.4mb 59f 58f
5:50am 4.5ft 17s 7s 9 13 mph 1018.2mb 59f 58f
4:50am 4.5ft 12s 7s 9 13 mph 1018.2mb 59f 59f
3:50am 4ft 17s 7s 7 9 mph 1018.4mb 59f 59f
1:50am 4ft 13s 7s 13 16 mph 1018.9mb 59f 59f
12:50am 4ft 11s 7s 11 13 mph 1018.9mb 59f 59f
Thu 08/16 11:50pm 4ft 11s 7s 11 13 mph 1018.8mb 60f 60f
10:50pm 4.5ft 12s 8s 13 18 mph 1018.9mb 60f 60f
9:50pm 4.5ft 14s 8s 9 11 mph 1018.8mb 60f 61f
8:50pm 4.5ft 12s 9s 11 16 mph 1018.1mb 61f 61f